Time;durP1;ratioP1;P1;durP2;ratioP2;P2;SDS_P1;SDS_P2;PMS_P1;PMS_P2;Temp;Humidity;BMP_temperature;BMP_pressure;BME280_temperature;BME280_humidity;BME280_pressure;Samples;Min_cycle;Max_cycle;Signal;HPM_P1;HPM_P2
2022/10/25 00:00:47;;;;;;;11.30;5.60;;;;;;;1.05;66.62;99995.84;5054831;28;20057;-53
2022/10/25 00:03:12;;;;;;;11.15;6.20;;;;;;;1.21;66.83;100033.06;5053817;28;20371;-54
2022/10/25 00:05:39;;;;;;;12.23;6.82;;;;;;;0.96;66.44;99989.13;5054875;28;20033;-53
2022/10/25 00:08:05;;;;;;;12.23;6.32;;;;;;;1.09;67.01;100017.69;5050227;28;20109;-56
2022/10/25 00:10:31;;;;;;;12.35;6.28;;;;;;;1.09;67.07;100031.75;5035438;28;20112;-57
2022/10/25 00:12:57;;;;;;;8.88;5.70;;;;;;;1.03;67.03;100034.59;5035393;28;20462;-55
2022/10/25 00:15:23;;;;;;;11.57;6.80;;;;;;;0.99;67.19;100033.00;5035954;28;20055;-55
2022/10/25 00:17:49;;;;;;;14.27;6.47;;;;;;;0.95;67.43;100037.50;5034800;28;20407;-54
2022/10/25 00:20:15;;;;;;;11.10;5.78;;;;;;;0.86;67.77;100029.97;5035470;28;20033;-54
2022/10/25 00:22:40;;;;;;;11.32;6.47;;;;;;;0.85;67.60;100041.44;5035036;28;20060;-52
2022/10/25 00:25:07;;;;;;;13.88;6.47;;;;;;;0.79;68.04;100044.28;5035313;28;20038;-53
2022/10/25 00:27:34;;;;;;;16.77;7.03;;;;;;;0.58;68.04;100009.91;5034720;28;20072;-54
2022/10/25 00:29:59;;;;;;;18.27;7.22;;;;;;;0.64;67.88;100036.00;5035759;28;20203;-51
2022/10/25 00:32:25;;;;;;;12.50;7.03;;;;;;;0.60;68.25;100037.06;5033797;28;20401;-65
2022/10/25 00:34:51;;;;;;;16.38;7.43;;;;;;;0.64;68.46;100051.81;5054512;28;20037;-59
2022/10/25 00:37:17;;;;;;;14.23;7.13;;;;;;;0.63;68.40;100054.53;5054811;28;20045;-56
2022/10/25 00:39:42;;;;;;;12.75;6.82;;;;;;;0.59;68.22;100048.50;5053960;28;20111;-51
2022/10/25 00:42:13;;;;;;;12.10;6.50;;;;;;;0.62;68.52;100051.03;5054036;28;20045;-55
2022/10/25 00:44:39;;;;;;;11.07;6.00;;;;;;;0.57;68.73;100051.19;5034483;28;20041;-53
2022/10/25 00:47:21;;;;;;;12.68;6.22;;;;;;;0.61;68.28;100051.09;5035061;28;20041;-54
2022/10/25 00:50:04;;;;;;;10.35;5.97;;;;;;;0.63;68.43;100065.91;5044873;28;20388;-53
2022/10/25 00:52:34;;;;;;;13.20;5.90;;;;;;;0.59;68.19;100064.31;5053376;28;20032;-51
2022/10/25 00:55:03;;;;;;;14.45;5.97;;;;;;;0.56;68.10;100061.78;5055641;28;20033;-54
2022/10/25 00:57:36;;;;;;;8.80;5.28;;;;;;;0.55;68.36;100067.97;5055216;28;20029;-50
2022/10/25 01:00:04;;;;;;;14.50;5.55;;;;;;;0.55;68.29;100065.34;5041063;28;20346;-53
2022/10/25 01:02:29;;;;;;;9.18;5.43;;;;;;;0.49;67.95;100065.56;5034304;28;20048;-52
2022/10/25 01:04:55;;;;;;;10.18;5.70;;;;;;;0.46;68.21;100076.19;5054609;28;20037;-51
2022/10/25 01:07:21;;;;;;;10.27;5.43;;;;;;;0.28;68.46;100033.78;5054394;28;20032;-55
2022/10/25 01:09:46;;;;;;;9.05;5.15;;;;;;;0.37;68.15;100069.50;5042870;28;20074;-55
2022/10/25 01:12:12;;;;;;;10.93;5.60;;;;;;;0.39;68.83;100071.13;5033296;28;20088;-54
2022/10/25 01:14:42;;;;;;;8.55;5.53;;;;;;;0.35;68.63;100066.91;5050322;28;20047;-56
2022/10/25 01:17:35;;;;;;;11.40;5.70;;;;;;;0.40;68.90;100080.75;5053271;28;20044;-55
2022/10/25 01:20:04;;;;;;;9.90;5.18;;;;;;;0.34;68.52;100075.72;5039777;28;20033;-54
2022/10/25 01:22:34;;;;;;;13.68;6.22;;;;;;;0.33;69.15;100081.88;5034152;28;20041;-58
2022/10/25 01:25:41;;;;;;;12.40;5.13;;;;;;;0.35;68.96;100082.69;5034311;28;20137;-60
2022/10/25 01:28:38;;;;;;;10.75;5.10;;;;;;;0.32;69.13;100082.81;5046065;28;20105;-58
2022/10/25 01:31:25;;;;;;;11.18;5.57;;;;;;;0.27;69.22;100077.69;5052863;28;20047;-56
2022/10/25 01:34:00;;;;;;;12.02;5.35;;;;;;;0.25;69.27;100081.31;5053915;28;20041;-57
2022/10/25 01:36:31;;;;;;;13.52;6.05;;;;;;;0.20;69.22;100078.81;5054650;28;20029;-54
2022/10/25 01:39:11;;;;;;;12.02;5.65;;;;;;;0.23;69.35;100083.97;5034270;28;20040;-56
2022/10/25 01:41:49;;;;;;;9.27;5.45;;;;;;;0.22;69.27;100084.00;5033602;28;20136;-57
2022/10/25 01:44:42;;;;;;;11.60;4.90;;;;;;;0.24;69.44;100085.69;5034470;28;20514;-58
2022/10/25 01:47:15;;;;;;;10.77;5.50;;;;;;;0.18;69.12;100091.16;5038112;28;20036;-63
2022/10/25 01:49:46;;;;;;;7.00;4.32;;;;;;;0.14;69.44;100090.41;5054198;28;20044;-60
2022/10/25 01:52:13;;;;;;;9.30;4.70;;;;;;;0.10;69.56;100088.78;5051627;28;20025;-57
2022/10/25 01:54:38;;;;;;;10.90;5.18;;;;;;;0.07;69.15;100088.91;5053385;28;20477;-53
2022/10/25 01:57:22;;;;;;;8.27;4.80;;;;;;;0.06;69.37;100091.56;5049646;28;20044;-55
2022/10/25 02:00:06;;;;;;;7.43;4.53;;;;;;;0.03;69.27;100083.78;5034204;28;20037;-64
2022/10/25 02:02:34;;;;;;;12.73;4.95;;;;;;;-0.01;69.96;100085.63;5033005;28;20033;-57
2022/10/25 02:05:11;;;;;;;9.50;4.35;;;;;;;-0.02;69.84;100074.25;5048524;28;20044;-55
2022/10/25 02:07:41;;;;;;;11.07;4.80;;;;;;;0.00;69.60;100082.13;5053043;28;20431;-52
2022/10/25 02:10:08;;;;;;;9.30;5.40;;;;;;;0.00;69.59;100092.66;5034939;28;20030;-57
2022/10/25 02:12:45;;;;;;;11.20;4.85;;;;;;;-0.01;69.87;100090.91;5033171;28;20041;-54
2022/10/25 02:15:17;;;;;;;12.57;5.50;;;;;;;-0.03;69.95;100093.59;5036475;28;20076;-53
2022/10/25 02:17:56;;;;;;;12.35;5.43;;;;;;;-0.26;69.93;100060.09;5049747;28;20032;-57
2022/10/25 02:20:25;;;;;;;11.10;5.15;;;;;;;-0.08;70.62;100094.66;5032210;28;20091;-52
2022/10/25 02:22:53;;;;;;;10.00;5.45;;;;;;;-0.10;70.74;100104.38;5048506;28;20025;-56
2022/10/25 02:25:20;;;;;;;11.38;5.22;;;;;;;-0.05;70.48;100092.78;5032939;28;20310;-57
2022/10/25 02:27:49;;;;;;;16.73;5.35;;;;;;;-0.07;69.99;100107.78;5035133;28;20055;-54
2022/10/25 02:30:15;;;;;;;10.93;5.10;;;;;;;-0.10;70.12;100101.72;5052661;28;20036;-51
2022/10/25 02:32:41;;;;;;;9.63;4.95;;;;;;;-0.15;70.39;100099.25;5052520;28;20028;-57
2022/10/25 02:35:13;;;;;;;13.63;4.95;;;;;;;-0.12;70.32;100098.28;5051199;28;20444;-58
2022/10/25 02:37:39;;;;;;;10.68;5.03;;;;;;;-0.38;70.18;100060.50;5051479;28;20036;-62
2022/10/25 02:40:05;;;;;;;12.88;5.10;;;;;;;-0.19;70.41;100103.75;5052283;28;20359;-54
2022/10/25 02:42:30;;;;;;;9.52;4.88;;;;;;;-0.20;70.49;100109.94;5053096;28;20049;-54
2022/10/25 02:44:56;;;;;;;11.98;5.10;;;;;;;-0.37;70.66;100078.03;5052261;28;20116;-57
2022/10/25 02:47:21;;;;;;;10.25;4.88;;;;;;;-0.23;70.93;100106.53;5051288;28;20029;-53
2022/10/25 02:49:47;;;;;;;14.18;5.35;;;;;;;-0.26;70.88;100101.38;5033877;28;20029;-55
2022/10/25 02:52:12;;;;;;;13.23;5.18;;;;;;;-0.27;71.02;100118.91;5032673;28;20041;-55
2022/10/25 02:54:38;;;;;;;7.88;4.82;;;;;;;-0.30;70.81;100111.13;5031996;28;20051;-51
2022/10/25 02:57:03;;;;;;;9.73;5.10;;;;;;;-0.32;71.05;100116.44;5032332;28;20057;-53
2022/10/25 02:59:29;;;;;;;11.60;4.95;;;;;;;-0.32;71.10;100112.94;5048100;28;20108;-53
2022/10/25 03:01:54;;;;;;;10.05;4.65;;;;;;;-0.34;71.32;100110.38;5049450;28;20056;-55
2022/10/25 03:04:20;;;;;;;9.25;4.80;;;;;;;-0.36;70.97;100103.41;5032174;28;20091;-57
2022/10/25 03:06:45;;;;;;;9.63;4.93;;;;;;;-0.37;71.43;100106.97;5047895;28;20084;-55
2022/10/25 03:09:10;;;;;;;13.07;5.32;;;;;;;-0.38;71.11;100102.59;5043910;28;20029;-55
2022/10/25 03:11:36;;;;;;;13.02;4.60;;;;;;;-0.41;71.41;100113.22;5052118;28;20055;-58
2022/10/25 03:14:01;;;;;;;12.40;5.07;;;;;;;-0.41;71.64;100100.91;5051391;28;20033;-53
2022/10/25 03:16:27;;;;;;;11.00;5.22;;;;;;;-0.42;71.44;100090.47;5031959;28;20033;-57
2022/10/25 03:18:56;;;;;;;15.35;5.22;;;;;;;-0.38;71.53;100098.19;5042163;28;20028;-54
2022/10/25 03:21:22;;;;;;;12.13;4.88;;;;;;;-0.41;71.46;100108.81;5052446;28;20033;-60
2022/10/25 03:23:47;;;;;;;12.40;4.97;;;;;;;-0.41;71.73;100097.44;5051528;28;20037;-55
2022/10/25 03:26:13;;;;;;;8.40;4.38;;;;;;;-0.42;71.66;100101.81;5036058;28;20029;-54
2022/10/25 03:28:38;;;;;;;8.70;4.57;;;;;;;-0.44;71.43;100094.00;5043704;28;20045;-57
2022/10/25 03:31:13;;;;;;;11.68;4.97;;;;;;;-0.40;71.84;100101.78;5032523;28;20094;-56
2022/10/25 03:33:39;;;;;;;11.18;5.53;;;;;;;-0.42;71.48;100099.19;5031105;28;20405;-55
2022/10/25 03:36:05;;;;;;;13.38;5.05;;;;;;;-0.49;71.30;100095.03;5032187;28;20448;-57
2022/10/25 03:38:30;;;;;;;13.90;5.43;;;;;;;-0.51;71.62;100102.97;5038583;28;20064;-55
2022/10/25 03:40:56;;;;;;;11.98;5.22;;;;;;;-0.47;71.59;100104.63;5041100;28;20249;-55
2022/10/25 03:43:21;;;;;;;14.10;4.95;;;;;;;-0.50;71.60;100109.94;5038886;28;20045;-56
2022/10/25 03:45:47;;;;;;;13.93;5.28;;;;;;;-0.48;72.07;100112.53;5052001;28;20033;-57
2022/10/25 03:48:13;;;;;;;13.48;5.35;;;;;;;-0.51;72.19;100118.75;5050431;28;20065;-57
2022/10/25 03:50:38;;;;;;;10.57;4.97;;;;;;;-0.53;72.28;100112.69;5052367;28;20049;-55
2022/10/25 03:53:04;;;;;;;9.75;5.40;;;;;;;-0.53;72.48;100125.81;5051944;28;20037;-55
2022/10/25 03:55:31;;;;;;;11.63;5.75;;;;;;;-0.54;71.98;100121.47;5051511;28;20029;-53
2022/10/25 03:57:56;;;;;;;10.73;5.50;;;;;;;-0.61;72.15;100102.38;5049940;28;20068;-57
2022/10/25 04:00:22;;;;;;;14.30;5.88;;;;;;;-0.58;71.91;100109.31;5036530;28;20053;-54
2022/10/25 04:02:53;;;;;;;10.85;5.38;;;;;;;-0.49;72.08;100116.09;5067130;28;20032;-56
2022/10/25 04:05:19;;;;;;;11.52;5.55;;;;;;;-0.52;72.32;100111.75;5067495;28;20091;-51
2022/10/25 04:07:44;;;;;;;13.27;5.32;;;;;;;-0.51;71.88;100118.75;5051525;28;20028;-60
2022/10/25 04:10:09;;;;;;;12.48;5.55;;;;;;;-0.65;72.47;100089.38;5031759;28;20363;-59
2022/10/25 04:12:35;;;;;;;11.68;5.18;;;;;;;-0.49;72.14;100114.31;5037122;28;20072;-56
2022/10/25 04:15:00;;;;;;;15.75;5.65;;;;;;;-0.44;72.22;100115.03;5051696;28;20124;-55
2022/10/25 04:17:26;;;;;;;10.77;5.70;;;;;;;-0.46;72.03;100121.25;5051515;28;20033;-57
2022/10/25 04:19:51;;;;;;;14.40;5.55;;;;;;;-0.39;71.89;100119.31;5034403;28;20029;-56
2022/10/25 04:22:16;;;;;;;15.85;5.25;;;;;;;-0.51;71.96;100092.44;5035240;28;20061;-56
2022/10/25 04:24:42;;;;;;;10.75;5.43;;;;;;;-0.33;71.73;100121.72;5035193;28;20053;-64
2022/10/25 04:27:07;;;;;;;13.48;6.35;;;;;;;-0.28;71.67;100119.81;5035391;28;20060;-57
2022/10/25 04:29:33;;;;;;;18.23;5.88;;;;;;;-0.25;71.75;100113.63;5049283;28;20102;-65
2022/10/25 04:31:58;;;;;;;14.32;6.05;;;;;;;-0.18;71.67;100116.00;5054960;28;20177;-62
2022/10/25 04:34:24;;;;;;;11.60;5.53;;;;;;;-0.09;71.33;100119.25;5054799;28;20029;-60
2022/10/25 04:36:49;;;;;;;16.02;6.10;;;;;;;-0.06;71.15;100108.63;5048077;28;20048;-60
2022/10/25 04:39:14;;;;;;;15.00;6.30;;;;;;;0.04;71.16;100109.19;5046019;28;20121;-61
2022/10/25 04:41:40;;;;;;;21.17;6.28;;;;;;;0.14;71.27;100113.25;5054211;28;20048;-67
2022/10/25 04:44:06;;;;;;;20.58;6.63;;;;;;;0.24;71.24;100105.88;5044772;28;20061;-61
2022/10/25 04:46:31;;;;;;;19.35;6.40;;;;;;;0.20;70.82;100077.94;5034960;28;20045;-59
2022/10/25 04:48:57;;;;;;;12.13;6.13;;;;;;;0.51;70.43;100108.53;5037494;28;20032;-58
2022/10/25 04:51:22;;;;;;;12.77;5.90;;;;;;;0.66;69.68;100102.69;5055849;28;20039;-62
2022/10/25 04:53:48;;;;;;;12.32;6.45;;;;;;;0.82;69.11;100110.06;5034593;28;20034;-60
2022/10/25 04:56:13;;;;;;;17.42;6.90;;;;;;;0.97;68.69;100113.94;5035096;28;20389;-62
2022/10/25 04:58:39;;;;;;;18.05;6.38;;;;;;;1.05;68.32;100097.84;5035704;28;20376;-61
2022/10/25 05:01:10;;;;;;;12.45;6.63;;;;;;;1.34;67.82;100111.72;5034284;28;20475;-61
2022/10/25 05:03:36;;;;;;;14.55;6.25;;;;;;;1.46;67.27;100102.47;5035378;28;20182;-62
2022/10/25 05:06:05;;;;;;;15.65;6.65;;;;;;;1.63;66.80;100102.69;5034634;28;20103;-61
2022/10/25 05:08:30;;;;;;;21.25;5.93;;;;;;;1.82;66.19;100110.72;5038613;28;20029;-61
2022/10/25 05:10:56;;;;;;;19.98;6.35;;;;;;;2.73;65.46;100121.97;5052249;28;20539;-64
2022/10/25 05:13:21;;;;;;;15.13;5.82;;;;;;;5.10;58.90;100124.84;5054233;28;20033;-59
2022/10/25 05:15:56;;;;;;;14.40;6.20;;;;;;;7.66;51.98;100119.00;5054477;28;20029;-62
2022/10/25 05:18:22;;;;;;;16.33;5.75;;;;;;;9.35;46.60;100121.16;5050054;28;20052;-63
2022/10/25 05:20:55;;;;;;;14.70;5.65;;;;;;;11.29;42.06;100114.81;5045611;28;20037;-63
2022/10/25 05:23:21;;;;;;;11.60;5.40;;;;;;;13.28;37.49;100100.28;5054015;28;20095;-62
2022/10/25 05:25:47;;;;;;;16.80;6.53;;;;;;;14.97;34.11;100109.34;5053079;28;20025;-63
2022/10/25 05:28:13;;;;;;;22.33;7.00;;;;;;;15.96;31.79;100117.88;5051734;28;20029;-67
2022/10/25 05:30:42;;;;;;;16.75;6.88;;;;;;;16.49;30.29;100118.91;5049755;28;20529;-64
2022/10/25 05:33:08;;;;;;;12.70;6.40;;;;;;;16.95;29.65;100117.91;5032668;28;20120;-63
2022/10/25 05:35:33;;;;;;;17.50;6.70;;;;;;;17.64;27.83;100123.41;5041394;28;20033;-63
2022/10/25 05:37:59;;;;;;;15.02;6.38;;;;;;;18.24;27.20;100136.13;5051067;28;20083;-63
2022/10/25 05:40:25;;;;;;;15.57;7.28;;;;;;;18.97;25.87;100126.31;5033101;28;20033;-63
2022/10/25 05:42:52;;;;;;;13.15;6.00;;;;;;;19.91;25.02;100131.19;5033171;28;20122;-64
2022/10/25 05:45:18;;;;;;;16.13;6.90;;;;;;;20.55;23.81;100129.22;5043046;28;20041;-63
2022/10/25 05:47:44;;;;;;;18.95;6.75;;;;;;;21.19;22.60;100114.41;5052729;28;20071;-69
2022/10/25 05:50:09;;;;;;;16.38;7.07;;;;;;;22.18;21.01;100133.28;5033561;28;20041;-63
2022/10/25 05:52:35;;;;;;;22.15;6.68;;;;;;;22.83;20.36;100125.13;5033053;28;20025;-64
2022/10/25 05:55:00;;;;;;;20.90;6.72;;;;;;;23.37;20.05;100104.50;5033037;28;20040;-62
2022/10/25 05:57:26;;;;;;;52.08;39.95;;;;;;;24.36;18.49;100122.59;5033056;28;20041;-63
2022/10/25 05:59:51;;;;;;;22.30;11.30;;;;;;;25.39;17.35;100125.13;5045252;28;20094;-63
2022/10/25 06:02:16;;;;;;;23.30;7.72;;;;;;;26.12;17.01;100118.53;5033360;28;20470;-64
2022/10/25 06:04:42;;;;;;;16.15;7.85;;;;;;;26.48;16.47;100092.34;5032701;28;20115;-65
2022/10/25 06:07:07;;;;;;;15.65;7.03;;;;;;;27.07;15.56;100115.94;5032777;28;20416;-64
2022/10/25 06:09:33;;;;;;;14.50;7.40;;;;;;;27.41;15.13;100107.34;5047217;28;20052;-63
2022/10/25 06:11:58;;;;;;;21.30;8.05;;;;;;;27.91;14.67;100115.44;5052835;28;20032;-63
2022/10/25 06:14:23;;;;;;;25.75;8.07;;;;;;;28.20;14.39;100109.38;5052707;28;20048;-67
2022/10/25 06:16:49;;;;;;;19.58;8.68;;;;;;;28.56;14.10;100107.53;5034389;28;20033;-64
2022/10/25 06:19:14;;;;;;;18.85;8.05;;;;;;;29.01;13.89;100108.94;5035973;28;20029;-63
2022/10/25 06:21:40;;;;;;;21.77;8.13;;;;;;;29.41;13.33;100112.03;5032459;28;20344;-66
2022/10/25 06:24:05;;;;;;;14.55;7.28;;;;;;;29.69;12.82;100110.44;5048265;28;20379;-64
2022/10/25 06:26:31;;;;;;;16.65;7.80;;;;;;;29.45;12.75;100116.84;5051822;28;20451;-64
2022/10/25 06:29:00;;;;;;;12.77;7.25;;;;;;;29.27;13.29;100119.72;5050370;28;20452;-63
2022/10/25 06:31:25;;;;;;;14.60;7.60;;;;;;;28.66;13.69;100117.97;5052213;28;20048;-64
2022/10/25 06:33:51;;;;;;;18.10;6.95;;;;;;;29.50;12.64;100111.44;5034885;28;20036;-63
2022/10/25 06:36:22;;;;;;;13.07;7.43;;;;;;;30.49;12.54;100119.72;5032133;28;20029;-66
2022/10/25 06:38:48;;;;;;;15.38;8.10;;;;;;;30.83;11.52;100118.91;5037747;28;20021;-63
2022/10/25 06:41:17;;;;;;;15.68;7.60;;;;;;;31.61;11.16;100118.13;5032770;28;20155;-63
2022/10/25 06:43:42;;;;;;;18.95;7.97;;;;;;;31.97;10.81;100117.75;5032126;28;20045;-63
2022/10/25 06:46:11;;;;;;;18.90;6.65;;;;;;;32.44;10.96;100118.25;5036951;28;20045;-63
2022/10/25 06:48:37;;;;;;;18.05;6.93;;;;;;;32.49;10.64;100101.66;5040025;28;20041;-63
2022/10/25 06:51:10;;;;;;;14.85;6.72;;;;;;;33.04;10.49;100123.72;5032605;28;20098;-64
2022/10/25 06:53:36;;;;;;;9.70;6.25;;;;;;;32.84;10.07;100125.22;5032268;28;20044;-63
2022/10/25 06:56:03;;;;;;;16.80;7.43;;;;;;;33.08;10.06;100130.41;5033708;28;20379;-64
2022/10/25 06:58:30;;;;;;;18.52;6.78;;;;;;;33.02;9.82;100125.94;5047646;28;20109;-64
2022/10/25 07:01:03;;;;;;;13.50;7.10;;;;;;;33.26;9.93;100125.53;5032446;28;20037;-64
2022/10/25 07:03:33;;;;;;;14.98;7.18;;;;;;;32.75;10.23;100124.84;5041929;28;20025;-67
2022/10/25 07:06:05;;;;;;;17.27;7.40;;;;;;;32.50;10.06;100125.50;5045523;28;20064;-65
2022/10/25 07:08:31;;;;;;;15.23;7.22;;;;;;;32.33;10.03;100120.09;5050393;28;20033;-64
2022/10/25 07:10:56;;;;;;;16.35;7.63;;;;;;;32.12;10.59;100124.53;5049588;28;20029;-62
2022/10/25 07:13:23;;;;;;;16.20;6.18;;;;;;;31.94;10.33;100123.78;5050949;28;20036;-63
2022/10/25 07:15:48;;;;;;;13.20;6.32;;;;;;;31.83;10.49;100122.00;5051303;28;20064;-64
2022/10/25 07:18:14;;;;;;;16.25;6.50;;;;;;;31.55;10.83;100123.84;5051398;28;20162;-64
2022/10/25 07:20:40;;;;;;;12.68;6.95;;;;;;;31.14;10.88;100124.09;5049771;28;20029;-62
2022/10/25 07:23:05;;;;;;;18.52;7.15;;;;;;;30.59;11.05;100120.97;5050332;28;20474;-64
2022/10/25 07:25:31;;;;;;;15.60;6.40;;;;;;;29.20;12.27;100130.88;5051159;28;20025;-61
2022/10/25 07:27:56;;;;;;;18.65;6.60;;;;;;;27.05;13.39;100143.66;5051031;28;20044;-62
2022/10/25 07:30:22;;;;;;;17.98;5.50;;;;;;;24.38;15.75;100142.38;5050590;28;20041;-63
2022/10/25 07:32:47;;;;;;;11.32;5.20;;;;;;;21.78;17.91;100139.94;5051445;28;20127;-68
2022/10/25 07:35:13;;;;;;;8.80;4.80;;;;;;;19.52;20.63;100137.41;5048206;28;20112;-64
2022/10/25 07:37:38;;;;;;;11.15;4.50;;;;;;;17.57;22.57;100145.88;5049940;28;20367;-66
2022/10/25 07:40:05;;;;;;;9.23;4.60;;;;;;;15.93;24.90;100148.75;5051050;28;20025;-63
2022/10/25 07:42:30;;;;;;;12.00;4.57;;;;;;;14.46;27.04;100146.34;5050257;28;20048;-64
2022/10/25 07:44:55;;;;;;;15.10;4.38;;;;;;;13.38;28.69;100157.66;5047748;28;20414;-65
2022/10/25 07:47:21;;;;;;;11.18;4.50;;;;;;;12.51;30.04;100146.19;5049106;28;20120;-68
2022/10/25 07:49:46;;;;;;;13.95;4.40;;;;;;;11.86;31.35;100155.03;5050611;28;20032;-67
2022/10/25 07:52:12;;;;;;;11.43;4.07;;;;;;;11.31;32.36;100141.50;5050580;28;20031;-65
2022/10/25 07:54:38;;;;;;;10.55;4.20;;;;;;;10.97;32.86;100150.34;5037026;28;20856;-63
2022/10/25 07:57:05;;;;;;;9.63;4.05;;;;;;;10.57;33.66;100148.03;5045133;28;20033;-68
2022/10/25 07:59:31;;;;;;;6.50;4.05;;;;;;;10.28;34.30;100148.38;5045133;28;20033;-66
2022/10/25 08:01:56;;;;;;;8.95;4.07;;;;;;;10.15;34.42;100162.66;5047475;28;20099;-66
2022/10/25 08:04:21;;;;;;;12.95;3.60;;;;;;;9.94;34.54;100164.22;5054359;28;20106;-63
2022/10/25 08:06:47;;;;;;;10.93;4.00;;;;;;;9.82;35.26;100164.13;5054475;28;20029;-69
2022/10/25 08:09:13;;;;;;;9.90;4.43;;;;;;;9.69;35.91;100163.31;5037783;28;20040;-66
2022/10/25 08:11:38;;;;;;;10.43;4.45;;;;;;;9.59;36.24;100155.09;5035366;28;20040;-64
2022/10/25 08:14:04;;;;;;;12.00;3.53;;;;;;;9.46;36.29;100153.28;5044481;28;20043;-64
2022/10/25 08:16:29;;;;;;;8.90;3.35;;;;;;;9.39;36.11;100167.19;5053772;28;20044;-64
2022/10/25 08:18:54;;;;;;;14.65;3.08;;;;;;;9.08;36.77;100142.63;5052478;28;20057;-65
2022/10/25 08:21:20;;;;;;;4.32;2.05;;;;;;;9.06;35.78;100158.78;5050326;28;20041;-62
2022/10/25 08:23:45;;;;;;;8.00;2.92;;;;;;;8.87;37.13;100145.81;5054289;28;20032;-64
2022/10/25 08:26:11;;;;;;;10.15;3.35;;;;;;;8.69;37.72;100162.16;5047704;28;20041;-63
2022/10/25 08:28:36;;;;;;;9.60;4.22;;;;;;;8.59;38.42;100156.56;5033501;28;20033;-66
2022/10/25 08:31:03;;;;;;;4.57;2.90;;;;;;;8.56;37.97;100158.56;5048827;28;20073;-62
2022/10/25 08:33:29;;;;;;;8.18;3.08;;;;;;;8.54;37.94;100161.31;5034752;28;20045;-63
2022/10/25 08:35:55;;;;;;;8.63;3.35;;;;;;;8.50;38.93;100156.31;5035054;28;20029;-63
2022/10/25 08:38:20;;;;;;;7.47;2.55;;;;;;;8.50;38.06;100167.84;5050960;28;20360;-62
2022/10/25 08:40:53;;;;;;;3.78;2.20;;;;;;;8.48;37.81;100167.91;5050732;28;20037;-69
2022/10/25 08:43:41;;;;;;;4.95;2.00;;;;;;;8.42;38.21;100170.97;5053713;28;20088;-66
2022/10/25 08:46:16;;;;;;;6.60;2.92;;;;;;;8.50;38.32;100154.50;5038667;28;20118;-68
2022/10/25 08:48:47;;;;;;;7.18;3.72;;;;;;;8.61;38.78;100168.00;5035241;28;20091;-66
2022/10/25 08:51:23;;;;;;;14.75;4.43;;;;;;;8.67;38.75;100161.38;5038390;28;20435;-68
2022/10/25 08:53:54;;;;;;;11.82;3.85;;;;;;;8.70;38.35;100160.31;5048098;28;20115;-70
2022/10/25 08:56:21;;;;;;;5.50;2.97;;;;;;;8.67;38.43;100169.38;5038514;28;20099;-69
2022/10/25 08:58:54;;;;;;;5.03;2.70;;;;;;;8.71;37.93;100164.69;5034845;28;20059;-71
2022/10/25 09:01:37;;;;;;;7.63;2.30;;;;;;;8.66;37.79;100164.16;5049300;28;20460;-70
2022/10/25 09:04:03;;;;;;;4.18;2.08;;;;;;;8.47;38.31;100162.66;5046341;28;20490;-71
2022/10/25 09:06:28;;;;;;;6.47;1.95;;;;;;;8.48;38.04;100161.72;5049826;28;20029;-68
2022/10/25 09:09:14;;;;;;;9.07;3.05;;;;;;;8.41;37.80;100169.25;5052377;28;20036;-69
2022/10/25 09:12:04;;;;;;;5.70;1.98;;;;;;;8.38;38.07;100158.78;5050572;28;20037;-66
2022/10/25 09:14:48;;;;;;;7.00;1.90;;;;;;;8.10;38.30;100154.44;5050216;28;20033;-67
2022/10/25 09:17:26;;;;;;;4.47;1.95;;;;;;;7.94;38.84;100160.75;5051173;28;20376;-67
2022/10/25 09:19:59;;;;;;;7.82;2.00;;;;;;;7.90;38.62;100167.25;5048967;28;20426;-67
2022/10/25 09:22:27;;;;;;;6.53;2.00;;;;;;;7.89;38.40;100163.72;5053225;28;20040;-68
2022/10/25 09:24:52;;;;;;;4.65;1.95;;;;;;;7.86;38.60;100157.75;5050548;28;20094;-68
2022/10/25 09:27:23;;;;;;;5.13;2.28;;;;;;;7.89;38.68;100166.38;5034036;28;20116;-66
2022/10/25 09:30:04;;;;;;;6.07;2.20;;;;;;;7.95;38.65;100166.94;5048634;28;20060;-67
2022/10/25 09:32:38;;;;;;;5.30;2.40;;;;;;;7.96;38.18;100163.34;5043543;28;20453;-73
2022/10/25 09:35:10;;;;;;;10.52;2.55;;;;;;;7.94;38.50;100162.56;5049246;28;20048;-73
2022/10/25 09:37:46;;;;;;;4.63;2.17;;;;;;;7.97;38.24;100163.22;5049976;28;20102;-70
2022/10/25 09:40:17;;;;;;;7.22;2.22;;;;;;;7.79;38.36;100127.06;5051532;28;20431;-68
2022/10/25 09:42:52;;;;;;;4.22;1.98;;;;;;;7.95;37.92;100161.59;5049536;28;20060;-67
2022/10/25 09:45:18;;;;;;;4.05;2.13;;;;;;;7.73;38.32;100160.34;5047962;28;20045;-69
2022/10/25 09:47:59;;;;;;;6.20;2.40;;;;;;;7.60;38.33;100161.09;5049268;28;20365;-68
2022/10/25 09:50:29;;;;;;;5.40;2.30;;;;;;;7.34;38.56;100141.41;5050319;28;20032;-71
2022/10/25 09:53:15;;;;;;;6.63;2.47;;;;;;;7.49;38.63;100162.72;5042525;28;20034;-70
2022/10/25 09:55:52;;;;;;;4.88;2.33;;;;;;;7.48;38.60;100169.88;5051564;28;20032;-72
2022/10/25 09:58:24;;;;;;;3.50;2.10;;;;;;;7.41;38.30;100156.06;5044763;28;20380;-67
2022/10/25 10:00:52;;;;;;;3.65;1.73;;;;;;;7.33;37.88;100163.66;5046176;28;20048;-67
2022/10/25 10:03:19;;;;;;;5.85;2.30;;;;;;;7.17;38.66;100155.75;5048367;28;20033;-69
2022/10/25 10:05:51;;;;;;;4.85;2.22;;;;;;;7.17;38.81;100174.41;5050709;28;20040;-67
2022/10/25 10:08:16;;;;;;;8.20;2.40;;;;;;;7.06;38.27;100166.22;5051579;28;20041;-65
2022/10/25 10:10:44;;;;;;;8.45;2.58;;;;;;;6.97;38.12;100163.13;5051705;28;20406;-68
2022/10/25 10:13:22;;;;;;;5.63;2.40;;;;;;;6.95;38.98;100162.38;5051660;28;20053;-69
2022/10/25 10:16:03;;;;;;;4.82;2.25;;;;;;;6.70;39.25;100134.56;5053354;28;20451;-68
2022/10/25 10:18:30;;;;;;;10.48;4.20;;;;;;;6.80;39.66;100166.81;5050455;28;20040;-70
2022/10/25 10:21:13;;;;;;;4.40;1.90;;;;;;;6.73;39.05;100160.16;5046417;28;20025;-67
2022/10/25 10:23:41;;;;;;;3.65;1.48;;;;;;;6.66;38.04;100153.50;5069056;28;20047;-69
2022/10/25 10:26:25;;;;;;;1.83;1.15;;;;;;;6.59;38.26;100150.34;5052682;28;20024;-67
2022/10/25 10:29:08;;;;;;;3.80;1.30;;;;;;;6.44;38.88;100147.59;5050486;28;20102;-72
2022/10/25 10:31:37;;;;;;;4.03;1.20;;;;;;;6.32;38.73;100156.31;5052704;28;20060;-68
2022/10/25 10:34:03;;;;;;;2.38;1.20;;;;;;;6.25;38.90;100152.28;5052609;28;20416;-67
2022/10/25 10:36:30;;;;;;;2.58;1.02;;;;;;;6.20;39.13;100155.22;5059962;28;20126;-70
2022/10/25 10:39:20;;;;;;;2.20;1.10;;;;;;;6.26;39.44;100157.50;5054694;28;20097;-69
2022/10/25 10:41:59;;;;;;;7.38;1.30;;;;;;;6.19;39.36;100158.81;5039795;28;20045;-67
2022/10/25 10:44:25;;;;;;;3.80;1.05;;;;;;;6.04;39.73;100147.25;5051398;28;20037;-68
2022/10/25 10:46:53;;;;;;;2.67;1.50;;;;;;;6.03;39.55;100157.03;5051838;28;20059;-68
2022/10/25 10:49:23;;;;;;;2.70;1.30;;;;;;;5.98;39.90;100147.56;5036172;28;20080;-67
2022/10/25 10:51:48;;;;;;;4.05;1.33;;;;;;;5.93;39.84;100155.81;5059526;28;20037;-68
2022/10/25 10:54:25;;;;;;;3.30;1.15;;;;;;;5.90;39.62;100155.94;5072463;28;20119;-69
2022/10/25 10:56:59;;;;;;;4.85;1.35;;;;;;;5.89;39.56;100165.75;5071734;28;20098;-66
2022/10/25 10:59:31;;;;;;;4.05;1.52;;;;;;;5.86;40.48;100162.38;5072296;28;20024;-67
2022/10/25 11:02:20;;;;;;;5.22;1.90;;;;;;;5.92;40.24;100155.88;5035343;28;20341;-66
2022/10/25 11:04:50;;;;;;;11.52;1.83;;;;;;;5.91;40.88;100154.16;5044110;28;20029;-63
2022/10/25 11:07:29;;;;;;;4.28;1.98;;;;;;;5.77;40.30;100123.91;5033684;28;20036;-62
2022/10/25 11:10:16;;;;;;;5.10;1.85;;;;;;;5.98;40.48;100145.78;5032287;28;20448;-62
2022/10/25 11:12:42;;;;;;;4.25;1.27;;;;;;;5.77;39.68;100123.91;5045637;28;20037;-62
2022/10/25 11:15:12;;;;;;;4.43;1.45;;;;;;;5.91;39.60;100147.06;5049956;28;20033;-66
2022/10/25 11:17:46;;;;;;;3.17;1.52;;;;;;;5.81;40.17;100130.78;5051007;28;20351;-64
2022/10/25 11:20:32;;;;;;;4.88;1.85;;;;;;;6.09;39.82;100154.97;5049607;28;20112;-60
2022/10/25 11:23:05;;;;;;;3.60;1.77;;;;;;;6.15;40.31;100160.78;5054674;28;20071;-64
2022/10/25 11:25:59;;;;;;;5.70;1.90;;;;;;;6.18;39.66;100149.97;5045268;28;20040;-66
2022/10/25 11:28:31;;;;;;;10.52;2.47;;;;;;;6.27;39.71;100151.25;5044352;28;20037;-63
2022/10/25 11:31:29;;;;;;;7.65;2.35;;;;;;;6.32;39.87;100143.03;5053019;28;20440;-63
2022/10/25 11:34:21;;;;;;;3.75;1.90;;;;;;;6.22;39.13;100107.25;5049463;28;20041;-61